createdAt,value
2023-02-19T00:01:17.241Z,2.87
2023-02-19T00:03:50.351Z,3.30
2023-02-19T00:06:16.871Z,3.38
2023-02-19T00:08:43.348Z,3.83
2023-02-19T00:11:12.998Z,3.38
2023-02-19T00:13:41.887Z,3.10
2023-02-19T00:16:09.950Z,3.17
2023-02-19T00:18:36.940Z,3.85
2023-02-19T00:21:04.154Z,3.00
2023-02-19T00:23:31.429Z,3.30
2023-02-19T00:26:17.269Z,3.30
2023-02-19T00:28:45.108Z,3.30
2023-02-19T00:31:18.341Z,3.63
2023-02-19T00:33:47.072Z,2.63
2023-02-19T00:36:14.530Z,2.33
2023-02-19T00:38:42.528Z,3.33
2023-02-19T00:41:19.218Z,3.08
2023-02-19T00:44:00.656Z,2.63
2023-02-19T00:46:38.765Z,2.50
2023-02-19T00:49:06.963Z,2.75
2023-02-19T00:51:37.064Z,2.93
2023-02-19T00:54:04.475Z,3.08
2023-02-19T00:56:31.214Z,3.05
2023-02-19T00:58:58.447Z,2.38
2023-02-19T01:01:25.127Z,2.38
2023-02-19T01:03:51.729Z,2.97
2023-02-19T01:06:19.935Z,3.00
2023-02-19T01:08:46.912Z,3.38
2023-02-19T01:11:14.345Z,2.75
2023-02-19T01:13:42.824Z,3.08
2023-02-19T01:16:19.555Z,3.03
2023-02-19T01:18:47.749Z,2.30
2023-02-19T01:21:18.043Z,2.95
2023-02-19T01:23:45.170Z,2.75
2023-02-19T01:26:15.177Z,2.47
2023-02-19T01:28:42.098Z,3.63
2023-02-19T01:31:13.670Z,3.33
2023-02-19T01:33:40.705Z,3.00
2023-02-19T01:36:07.628Z,3.30
2023-02-19T01:38:34.189Z,2.95
2023-02-19T01:41:05.830Z,2.90
2023-02-19T01:43:54.956Z,3.15
2023-02-19T01:46:21.607Z,2.65
2023-02-19T01:48:48.144Z,2.60
2023-02-19T01:51:19.755Z,3.42
2023-02-19T01:53:52.747Z,2.50
2023-02-19T01:56:21.165Z,2.40
2023-02-19T01:58:48.033Z,3.67
2023-02-19T02:01:14.796Z,2.78
2023-02-19T02:03:43.882Z,2.92
2023-02-19T02:06:24.245Z,2.50
2023-02-19T02:09:15.600Z,2.65
2023-02-19T02:11:51.377Z,2.90
2023-02-19T02:14:20.333Z,2.60
2023-02-19T02:17:45.346Z,3.47
2023-02-19T02:20:14.740Z,2.33
2023-02-19T02:23:08.404Z,2.22
2023-02-19T02:26:05.692Z,2.80
2023-02-19T02:29:04.490Z,3.00
2023-02-19T02:31:39.931Z,2.67
2023-02-19T02:34:14.797Z,2.60
2023-02-19T02:36:44.982Z,2.78
2023-02-19T02:39:14.576Z,2.40
2023-02-19T02:41:44.038Z,2.13
2023-02-19T02:44:10.750Z,3.45
2023-02-19T02:46:44.096Z,2.43
2023-02-19T02:49:20.156Z,2.83
2023-02-19T02:51:52.829Z,2.90
2023-02-19T02:54:42.850Z,2.80
2023-02-19T02:57:14.743Z,2.70
2023-02-19T02:59:42.892Z,2.70
2023-02-19T03:02:25.563Z,2.25
2023-02-19T03:05:27.030Z,1.90
2023-02-19T03:07:59.489Z,3.03
2023-02-19T03:10:39.316Z,2.67
2023-02-19T03:13:29.355Z,2.87
2023-02-19T03:16:20.340Z,2.42
2023-02-19T03:19:10.672Z,2.92
2023-02-19T03:21:40.730Z,2.63
2023-02-19T03:24:29.053Z,2.50
2023-02-19T03:26:59.423Z,2.50
2023-02-19T03:29:29.773Z,2.15
2023-02-19T03:32:02.301Z,3.28
2023-02-19T03:34:38.388Z,2.70
2023-02-19T03:37:11.756Z,3.45
2023-02-19T03:39:44.454Z,2.40
2023-02-19T03:42:43.573Z,2.67
2023-02-19T03:45:29.687Z,3.15
2023-02-19T03:48:08.232Z,2.88
2023-02-19T03:50:50.175Z,2.72
2023-02-19T03:53:38.628Z,2.47
2023-02-19T03:56:10.599Z,2.63
2023-02-19T03:58:55.303Z,2.75
2023-02-19T04:01:39.844Z,3.22
2023-02-19T04:04:13.993Z,2.70
2023-02-19T04:06:43.482Z,2.53
2023-02-19T04:09:13.443Z,2.20
2023-02-19T04:11:40.579Z,2.53
2023-02-19T04:14:12.971Z,3.17
2023-02-19T04:16:44.649Z,2.55
2023-02-19T04:19:19.637Z,2.10
2023-02-19T04:21:47.139Z,2.72
2023-02-19T04:24:22.050Z,2.72
2023-02-19T04:26:49.204Z,2.15
2023-02-19T04:29:15.708Z,2.70
2023-02-19T04:31:42.248Z,2.80
2023-02-19T04:34:08.966Z,2.53
2023-02-19T04:36:35.459Z,2.58
2023-02-19T04:39:02.015Z,2.25
2023-02-19T04:41:28.579Z,2.08
2023-02-19T04:43:55.142Z,3.30
2023-02-19T04:46:22.019Z,2.33
2023-02-19T04:48:48.544Z,2.63
2023-02-19T04:51:15.117Z,2.13
2023-02-19T04:53:42.794Z,2.90
2023-02-19T04:56:13.998Z,3.03
2023-02-19T04:58:41.690Z,2.40
2023-02-19T05:01:09.824Z,2.88
2023-02-19T05:03:37.074Z,2.50
2023-02-19T05:06:08.900Z,2.83
2023-02-19T05:08:35.778Z,2.60
2023-02-19T05:11:04.381Z,3.25
2023-02-19T05:13:31.037Z,2.00
2023-02-19T05:16:02.107Z,2.38
2023-02-19T05:18:30.340Z,2.50
2023-02-19T05:20:57.809Z,2.13
2023-02-19T05:23:24.713Z,2.40
2023-02-19T05:25:51.271Z,2.30
2023-02-19T05:28:18.162Z,2.35
2023-02-19T05:30:49.367Z,2.42
2023-02-19T05:33:16.989Z,2.67
2023-02-19T05:35:46.057Z,2.22
2023-02-19T05:38:13.275Z,2.30
2023-02-19T05:40:39.856Z,2.47
2023-02-19T05:43:07.358Z,2.45
2023-02-19T05:45:35.048Z,2.63
2023-02-19T05:48:01.800Z,3.00
2023-02-19T05:50:28.787Z,2.63
2023-02-19T05:52:55.500Z,2.72
2023-02-19T05:55:22.318Z,1.83
2023-02-19T05:57:49.246Z,2.27
2023-02-19T06:00:18.442Z,2.20
2023-02-19T06:02:46.728Z,2.42
2023-02-19T06:05:13.670Z,2.58
2023-02-19T06:07:41.709Z,2.00
2023-02-19T06:10:10.238Z,2.03
2023-02-19T06:12:37.503Z,2.28
2023-02-19T06:15:05.722Z,2.03
2023-02-19T06:17:33.424Z,2.00
2023-02-19T06:20:01.036Z,1.70
2023-02-19T06:22:28.286Z,2.53
2023-02-19T06:24:54.874Z,2.42
2023-02-19T06:27:21.390Z,2.40
2023-02-19T06:29:47.940Z,2.88
2023-02-19T06:32:14.564Z,2.20
2023-02-19T06:34:41.173Z,2.07
2023-02-19T06:37:07.888Z,2.53
2023-02-19T06:39:34.430Z,2.05
2023-02-19T06:42:00.965Z,2.25
2023-02-19T06:44:27.455Z,1.98
2023-02-19T06:46:57.031Z,1.90
2023-02-19T06:49:23.636Z,2.70
2023-02-19T06:51:50.130Z,2.05
2023-02-19T06:54:16.625Z,1.92
2023-02-19T06:56:44.848Z,2.30
2023-02-19T06:59:16.968Z,2.73
2023-02-19T07:01:44.073Z,2.00
2023-02-19T07:04:10.964Z,2.28
2023-02-19T07:06:38.315Z,2.15
2023-02-19T07:09:06.597Z,1.80
2023-02-19T07:11:34.566Z,2.13
2023-02-19T07:14:03.100Z,2.20
2023-02-19T07:16:29.952Z,2.42
2023-02-19T07:18:58.422Z,2.22
2023-02-19T07:21:25.414Z,2.28
2023-02-19T07:23:55.403Z,2.67
2023-02-19T07:26:43.233Z,2.17
2023-02-19T07:29:09.945Z,1.98
2023-02-19T07:31:36.534Z,2.28
2023-02-19T07:34:03.098Z,2.60
2023-02-19T07:36:29.687Z,1.90
2023-02-19T07:38:57.954Z,2.15
2023-02-19T07:41:25.481Z,2.50
2023-02-19T07:43:52.359Z,2.90
2023-02-19T07:46:19.132Z,2.65
2023-02-19T07:48:45.867Z,1.57
2023-02-19T07:51:19.071Z,2.15
2023-02-19T07:53:47.190Z,2.88
2023-02-19T07:56:14.270Z,1.73
2023-02-19T07:58:41.310Z,2.13
2023-02-19T08:01:15.555Z,1.60
2023-02-19T08:03:43.492Z,2.50
2023-02-19T08:06:11.393Z,1.90
2023-02-19T08:08:40.720Z,1.98
2023-02-19T08:11:26.144Z,1.98
2023-02-19T08:13:53.743Z,1.70
2023-02-19T08:16:30.008Z,2.13
2023-02-19T08:19:07.394Z,1.77
2023-02-19T08:21:34.504Z,2.40
2023-02-19T08:24:01.548Z,2.13
2023-02-19T08:26:28.190Z,2.60
2023-02-19T08:28:54.738Z,2.00
2023-02-19T08:31:21.455Z,1.52
2023-02-19T08:33:49.062Z,2.05
2023-02-19T08:36:15.586Z,1.67
2023-02-19T08:38:42.245Z,4.57
2023-02-19T08:41:12.077Z,1.58
2023-02-19T08:43:40.646Z,1.88
2023-02-19T08:46:10.606Z,1.98
2023-02-19T08:48:38.707Z,1.75
2023-02-19T08:51:08.603Z,1.63
2023-02-19T08:53:36.989Z,1.98
2023-02-19T08:56:08.512Z,2.30
2023-02-19T08:58:36.153Z,1.80
2023-02-19T09:01:03.381Z,1.77
2023-02-19T09:03:29.951Z,1.50
2023-02-19T09:05:56.458Z,2.17
2023-02-19T09:08:23.142Z,1.77
2023-02-19T09:11:04.509Z,1.90
2023-02-19T09:13:31.613Z,1.40
2023-02-19T09:15:58.376Z,1.70
2023-02-19T09:18:26.195Z,1.70
2023-02-19T09:20:52.793Z,1.75
2023-02-19T09:23:19.402Z,1.58
2023-02-19T09:25:46.043Z,2.10
2023-02-19T09:28:12.691Z,2.00
2023-02-19T09:30:39.216Z,1.77
2023-02-19T09:33:06.109Z,2.00
2023-02-19T09:35:32.701Z,1.83
2023-02-19T09:38:02.016Z,2.30
2023-02-19T09:40:30.282Z,2.37
2023-02-19T09:42:57.259Z,1.77
2023-02-19T09:45:26.249Z,1.98
2023-02-19T09:47:55.632Z,2.38
2023-02-19T09:50:32.257Z,1.98
2023-02-19T09:53:03.804Z,1.83
2023-02-19T09:55:39.257Z,2.40
2023-02-19T09:58:17.767Z,1.75
2023-02-19T10:00:48.962Z,2.60
2023-02-19T10:03:28.564Z,2.05
2023-02-19T10:05:56.507Z,1.70
2023-02-19T10:08:23.067Z,2.00
2023-02-19T10:10:49.705Z,1.98
2023-02-19T10:13:22.908Z,2.00
2023-02-19T10:15:51.748Z,2.10
2023-02-19T10:18:24.490Z,2.10
2023-02-19T10:20:52.844Z,1.88
2023-02-19T10:23:20.096Z,2.97
2023-02-19T10:25:57.304Z,1.80
2023-02-19T10:28:28.058Z,2.10
2023-02-19T10:30:57.935Z,1.80
2023-02-19T10:33:25.859Z,2.08
2023-02-19T10:35:56.744Z,2.00
2023-02-19T10:38:39.117Z,2.22
2023-02-19T10:41:18.090Z,1.63
2023-02-19T10:44:08.160Z,2.03
2023-02-19T10:46:37.452Z,1.65
2023-02-19T10:49:30.774Z,1.95
2023-02-19T10:52:02.490Z,1.77
2023-02-19T10:54:32.652Z,2.10
2023-02-19T10:57:30.529Z,1.93
2023-02-19T11:00:16.906Z,1.80
2023-02-19T11:02:44.784Z,1.95
2023-02-19T11:05:15.205Z,2.20
2023-02-19T11:07:59.666Z,2.25
2023-02-19T11:10:26.157Z,2.10
2023-02-19T11:12:56.305Z,2.28
2023-02-19T11:15:30.664Z,1.60
2023-02-19T11:18:01.588Z,1.80
2023-02-19T11:20:28.771Z,1.85
2023-02-19T11:23:04.617Z,1.83
2023-02-19T11:25:31.370Z,1.48
2023-02-19T11:28:06.932Z,2.10
2023-02-19T11:30:37.484Z,1.63
2023-02-19T11:33:22.314Z,2.78
2023-02-19T11:36:00.117Z,2.10
2023-02-19T11:38:26.745Z,1.75
2023-02-19T11:41:14.714Z,2.15
2023-02-19T11:43:50.111Z,1.67
2023-02-19T11:46:28.837Z,1.33
2023-02-19T11:49:08.388Z,1.30
2023-02-19T11:51:57.380Z,1.38
2023-02-19T11:54:48.752Z,1.77
2023-02-19T11:57:51.911Z,1.33
2023-02-19T12:00:24.975Z,1.40
2023-02-19T12:03:23.013Z,2.00
2023-02-19T12:06:17.429Z,1.50
2023-02-19T12:09:12.658Z,1.20
2023-02-19T12:12:00.784Z,1.40
2023-02-19T12:14:52.465Z,1.70
2023-02-19T12:17:57.431Z,1.60
2023-02-19T12:20:49.043Z,1.58
2023-02-19T12:23:34.410Z,1.27
2023-02-19T12:26:22.182Z,1.38
2023-02-19T12:29:18.728Z,1.15
2023-02-19T12:32:06.877Z,1.70
2023-02-19T12:35:05.952Z,1.30
2023-02-19T12:37:48.481Z,1.48
2023-02-19T12:40:28.832Z,1.53
2023-02-19T12:43:09.610Z,1.35
2023-02-19T12:46:02.334Z,1.33
2023-02-19T12:48:53.312Z,1.30
2023-02-19T12:51:35.757Z,1.20
2023-02-19T12:54:12.779Z,1.10
2023-02-19T12:56:46.837Z,1.30
2023-02-19T12:59:35.228Z,1.30
2023-02-19T13:02:34.350Z,1.30
2023-02-19T13:05:24.198Z,1.60
2023-02-19T13:08:00.728Z,1.57
2023-02-19T13:10:48.653Z,1.90
2023-02-19T13:13:38.695Z,1.40
2023-02-19T13:16:18.569Z,1.40
2023-02-19T13:18:52.098Z,1.63
2023-02-19T13:21:40.050Z,1.40
2023-02-19T13:24:16.894Z,1.25
2023-02-19T13:27:23.865Z,1.42
2023-02-19T13:30:06.825Z,1.40
2023-02-19T13:32:55.453Z,1.58
2023-02-19T13:35:25.737Z,1.20
2023-02-19T13:37:54.656Z,1.23
2023-02-19T13:40:35.912Z,1.65
2023-02-19T13:43:05.556Z,1.30
2023-02-19T13:45:41.024Z,1.27
2023-02-19T13:48:13.949Z,1.37
2023-02-19T13:50:40.733Z,1.27
2023-02-19T13:53:41.172Z,1.17
2023-02-19T13:56:34.061Z,1.15
2023-02-19T13:59:39.263Z,1.00
2023-02-19T14:02:12.424Z,1.00
2023-02-19T14:04:51.958Z,1.20
2023-02-19T14:07:18.500Z,1.20
2023-02-19T14:09:46.185Z,1.30
2023-02-19T14:12:15.061Z,1.30
2023-02-19T14:14:46.619Z,1.55
2023-02-19T14:17:45.724Z,1.50
2023-02-19T14:20:15.111Z,1.23
2023-02-19T14:22:47.677Z,1.48
2023-02-19T14:25:38.262Z,1.07
2023-02-19T14:28:10.697Z,1.52
2023-02-19T14:30:57.750Z,1.20
2023-02-19T14:33:24.266Z,1.50
2023-02-19T14:36:03.897Z,1.90
2023-02-19T14:38:36.429Z,1.83
2023-02-19T14:41:04.266Z,1.58
2023-02-19T14:43:31.877Z,1.92
2023-02-19T14:46:02.698Z,1.70
2023-02-19T14:48:33.819Z,1.90
2023-02-19T14:51:07.068Z,1.90
2023-02-19T14:53:39.539Z,1.60
2023-02-19T14:56:17.036Z,1.65
2023-02-19T14:58:43.612Z,1.40
2023-02-19T15:01:26.715Z,1.92
2023-02-19T15:03:56.539Z,1.43
2023-02-19T15:06:24.509Z,1.65
2023-02-19T15:09:00.889Z,1.90
2023-02-19T15:11:29.864Z,1.65
2023-02-19T15:14:00.001Z,1.67
2023-02-19T15:16:28.875Z,1.73
2023-02-19T15:18:57.910Z,1.40
2023-02-19T15:21:30.728Z,1.35
2023-02-19T15:24:01.426Z,1.60
2023-02-19T15:26:40.789Z,1.58
2023-02-19T15:29:15.954Z,1.93
2023-02-19T15:31:50.429Z,1.80
2023-02-19T15:34:36.031Z,2.33
2023-02-19T15:37:07.448Z,1.40
2023-02-19T15:39:40.178Z,1.70
2023-02-19T15:42:08.997Z,1.50
2023-02-19T15:44:44.217Z,1.80
2023-02-19T15:47:37.193Z,1.50
2023-02-19T15:50:13.180Z,1.80
2023-02-19T15:53:09.156Z,1.50
2023-02-19T15:55:59.823Z,1.67
2023-02-19T15:58:42.731Z,1.63
2023-02-19T16:01:19.623Z,2.20
2023-02-19T16:03:47.152Z,2.00
2023-02-19T16:06:16.740Z,1.63
2023-02-19T16:08:46.135Z,1.63
2023-02-19T16:11:24.546Z,2.00
2023-02-19T16:13:51.995Z,1.88
2023-02-19T16:16:38.492Z,1.75
2023-02-19T16:19:05.053Z,2.00
2023-02-19T16:21:31.564Z,1.73
2023-02-19T16:24:13.842Z,2.17
2023-02-19T16:26:41.801Z,1.83
2023-02-19T16:29:32.434Z,2.10
2023-02-19T16:32:04.298Z,2.50
2023-02-19T16:34:43.891Z,2.70
2023-02-19T16:37:33.331Z,2.40
2023-02-19T16:40:09.365Z,2.60
2023-02-19T16:42:37.090Z,2.33
2023-02-19T16:45:03.854Z,2.10
2023-02-19T16:47:36.133Z,2.63
2023-02-19T16:50:11.274Z,2.47
2023-02-19T16:52:39.331Z,2.30
2023-02-19T16:55:13.977Z,2.20
2023-02-19T16:57:40.566Z,3.40
2023-02-19T17:00:07.359Z,2.35
2023-02-19T17:02:33.945Z,3.58
2023-02-19T17:05:00.731Z,2.42
2023-02-19T17:07:27.694Z,2.28
2023-02-19T17:09:54.236Z,2.00
2023-02-19T17:12:22.147Z,2.40
2023-02-19T17:14:48.696Z,2.08
2023-02-19T17:17:15.231Z,1.90
2023-02-19T17:19:41.863Z,1.92
2023-02-19T17:22:08.529Z,1.97
2023-02-19T17:24:35.042Z,1.83
2023-02-19T17:27:01.608Z,2.88
2023-02-19T17:29:28.656Z,1.98
2023-02-19T17:31:55.275Z,1.88
2023-02-19T17:34:21.894Z,1.80
2023-02-19T17:36:48.467Z,1.52
2023-02-19T17:39:16.337Z,2.15
2023-02-19T17:41:43.195Z,1.83
2023-02-19T17:44:09.920Z,1.80
2023-02-19T17:46:37.260Z,1.67
2023-02-19T17:49:03.841Z,1.83
2023-02-19T17:51:30.314Z,2.00
2023-02-19T17:53:57.064Z,1.90
2023-02-19T17:56:26.229Z,1.92
2023-02-19T17:58:53.519Z,2.30
2023-02-19T18:01:20.657Z,2.30
2023-02-19T18:03:47.233Z,2.45
2023-02-19T18:06:14.101Z,2.45
2023-02-19T18:08:46.866Z,2.50
2023-02-19T18:11:13.617Z,2.63
2023-02-19T18:13:40.356Z,2.50
2023-02-19T18:16:07.218Z,2.65
2023-02-19T18:18:33.760Z,2.95
2023-02-19T18:21:00.240Z,2.95
2023-02-19T18:23:26.767Z,3.07
2023-02-19T18:25:53.306Z,3.28
2023-02-19T18:28:19.856Z,3.42
2023-02-19T18:30:46.537Z,3.40
2023-02-19T18:33:13.410Z,3.90
2023-02-19T18:35:40.422Z,2.67
2023-02-19T18:38:07.081Z,2.97
2023-02-19T18:40:33.664Z,3.08
2023-02-19T18:43:00.329Z,3.10
2023-02-19T18:45:27.555Z,2.70
2023-02-19T18:47:54.248Z,3.90
2023-02-19T18:50:20.799Z,3.60
2023-02-19T18:52:47.448Z,3.92
2023-02-19T18:55:13.980Z,2.90
2023-02-19T18:57:40.613Z,3.42
2023-02-19T19:00:08.331Z,3.93
2023-02-19T19:02:48.272Z,4.70
2023-02-19T19:05:18.163Z,3.38
2023-02-19T19:07:44.889Z,3.72
2023-02-19T19:10:11.590Z,3.65
2023-02-19T19:12:38.151Z,2.90
2023-02-19T19:15:05.518Z,3.35
2023-02-19T19:17:32.050Z,3.63
2023-02-19T19:19:58.646Z,3.53
2023-02-19T19:22:26.682Z,4.30
2023-02-19T19:24:53.318Z,4.63
2023-02-19T19:27:20.564Z,3.75
2023-02-19T19:29:47.900Z,4.25
2023-02-19T19:32:14.677Z,3.97
2023-02-19T19:34:42.829Z,4.45
2023-02-19T19:37:10.039Z,3.03
2023-02-19T19:39:36.898Z,3.20
2023-02-19T19:42:04.180Z,4.05
2023-02-19T19:44:30.723Z,3.70
2023-02-19T19:46:57.294Z,4.63
2023-02-19T19:49:23.820Z,4.90
2023-02-19T19:51:50.384Z,5.68
2023-02-19T19:54:16.997Z,9.40
2023-02-19T19:56:46.261Z,6.75
2023-02-19T19:59:14.609Z,9.48
2023-02-19T20:02:03.191Z,5.57
2023-02-19T20:04:29.906Z,4.95
2023-02-19T20:06:58.610Z,4.07
2023-02-19T20:09:25.711Z,3.38
2023-02-19T20:11:53.881Z,5.32
2023-02-19T20:14:22.492Z,9.27
2023-02-19T20:16:49.758Z,8.52
2023-02-19T20:19:18.101Z,7.93
2023-02-19T20:21:45.781Z,6.07
2023-02-19T20:24:24.250Z,9.18
2023-02-19T20:26:53.729Z,5.47
2023-02-19T20:29:20.222Z,5.72
2023-02-19T20:31:50.509Z,4.80
2023-02-19T20:34:18.116Z,4.28
2023-02-19T20:36:47.261Z,5.05
2023-02-19T20:39:15.416Z,13.60
2023-02-19T20:41:50.781Z,8.95
2023-02-19T20:44:18.281Z,6.07
2023-02-19T20:46:46.516Z,5.45
2023-02-19T20:49:14.927Z,4.82
2023-02-19T20:51:58.028Z,5.10
2023-02-19T20:54:27.509Z,5.43
2023-02-19T20:56:55.628Z,5.57
2023-02-19T20:59:25.166Z,4.50
2023-02-19T21:01:51.685Z,5.97
2023-02-19T21:04:20.871Z,4.77
2023-02-19T21:06:47.637Z,3.88
2023-02-19T21:09:14.122Z,5.25
2023-02-19T21:11:40.658Z,4.88
2023-02-19T21:14:07.168Z,4.30
2023-02-19T21:16:33.978Z,4.33
2023-02-19T21:19:00.511Z,3.65
2023-02-19T21:21:27.542Z,4.65
2023-02-19T21:23:55.569Z,3.83
2023-02-19T21:26:23.330Z,4.97
2023-02-19T21:28:53.279Z,5.73
2023-02-19T21:31:21.197Z,3.90
2023-02-19T21:33:48.837Z,9.00
2023-02-19T21:36:18.046Z,7.72
2023-02-19T21:38:44.592Z,17.58
2023-02-19T21:41:11.101Z,14.60
2023-02-19T21:43:37.637Z,14.55
2023-02-19T21:46:04.332Z,9.48
2023-02-19T21:48:30.945Z,6.57
2023-02-19T21:50:57.499Z,6.57
2023-02-19T21:53:24.020Z,4.43
2023-02-19T21:55:58.407Z,4.90
2023-02-19T21:58:26.145Z,5.95
2023-02-19T22:00:54.137Z,4.78
2023-02-19T22:03:20.871Z,4.82
2023-02-19T22:05:47.434Z,4.50
2023-02-19T22:08:15.622Z,5.43
2023-02-19T22:10:42.592Z,4.93
2023-02-19T22:13:09.936Z,4.95
2023-02-19T22:15:37.162Z,5.38
2023-02-19T22:18:03.989Z,4.67
2023-02-19T22:20:30.552Z,6.28
2023-02-19T22:22:57.153Z,4.95
2023-02-19T22:25:23.738Z,4.54
2023-02-19T22:27:50.303Z,5.07
2023-02-19T22:30:17.214Z,4.70
2023-02-19T22:32:43.738Z,6.05
2023-02-19T22:35:10.301Z,6.13
2023-02-19T22:37:36.784Z,5.45
2023-02-19T22:40:03.526Z,6.00
2023-02-19T22:42:30.052Z,5.50
2023-02-19T22:44:56.580Z,6.72
2023-02-19T22:47:23.126Z,6.97
2023-02-19T22:49:49.682Z,5.35
2023-02-19T22:52:16.259Z,5.00
2023-02-19T22:54:42.961Z,6.00
2023-02-19T22:57:09.570Z,6.22
2023-02-19T22:59:36.053Z,6.60
2023-02-19T23:02:02.574Z,5.07
2023-02-19T23:04:29.134Z,6.80
2023-02-19T23:06:55.746Z,3.87
2023-02-19T23:09:25.243Z,6.22
2023-02-19T23:11:52.550Z,6.53
2023-02-19T23:14:21.545Z,5.50
2023-02-19T23:16:48.104Z,6.72
2023-02-19T23:19:15.981Z,5.67
2023-02-19T23:21:44.632Z,5.72
2023-02-19T23:24:12.156Z,6.78
2023-02-19T23:26:46.564Z,6.25
2023-02-19T23:29:25.243Z,4.80
2023-02-19T23:31:52.642Z,4.67
2023-02-19T23:34:19.577Z,5.88
2023-02-19T23:36:49.242Z,5.88
2023-02-19T23:39:18.359Z,6.47
2023-02-19T23:41:49.344Z,6.00
2023-02-19T23:44:16.751Z,7.10
2023-02-19T23:46:43.303Z,7.00
2023-02-19T23:49:10.503Z,6.45
2023-02-19T23:51:37.216Z,6.00
2023-02-19T23:54:04.244Z,6.35
2023-02-19T23:56:30.847Z,6.93
2023-02-19T23:58:57.470Z,7.35
